Pagina principale
METAR-TAF:

METAR-TAF

Aeroporti :

L'Avana, Cuba

Aeroporto Internazionale José Martí

latitudine: 22-59N, longitudine: 082-24W, altezza: 59 m

Osservazione

Il bollettino è stato emesso 17 minuti fa, alle 00:55 UTC
Vento 4 kt da est/sud-est
Temperature 26°C
Umidità 79%
Pressione 1016 hPa
Visibilità: 9000 m
Nubi sparse ad un'altezza di 3000 ft

METAR: MUHA 240055Z 11004KT 9000 SCT030 26/22 Q1016

Ora: 21:12 (01:12 UTC)

Previsione

Il bollettino è stato emesso 2 ore e 12 minuti fa, alle 23:00 UTC
Previsione valida dal 24 alle 00 UTC al 24 alle 24 UTC
Vento 3 kt da direzioni variabili
Visibilità: 9000 m
Nubi sparse ad un'altezza di 3000 ft
Temporaneamente
dal 24 alle 20 UTC al 24 alle 24 UTC
Vento 10 kt da direzioni variabili
Visibilità: 5000 m
Poco nuvoloso ad un'altezza di 2000 ft, Cumulonembo.
Nuvoloso ad un'altezza di 2500 ft
temporale, pioggia

TAF: MUHA 232300Z 2400/2424 VRB03KT 9000 SCT030 TEMPO 2420/2424 VRB10KT 5000 TSRA FEW020CB BKN025

Osservazioni e previsioni meteorologiche di più di 4000 aeroporti (messaggi METAR e TAF).

Le stazioni disponibili sono rappresentate dai dischi gialli e rossi sulla carta.

Puntare il mouse per vedere il nome della stazione.

Clicca sopra per visualizzare le osservazioni e previsioni meteorologiche.

Per cambiare la mappa : fare clic sui pulsanti verdi con una croce nera per ingrandire, il pulsante verde con un trattino per diminuire, o sulla freccia verde per le mappe adiacenti.


METAR-TAF: